createdAt,value
2022-12-31T00:01:25.450Z,101678.28
2022-12-31T00:03:54.618Z,101686.63
2022-12-31T00:06:30.739Z,101682.25
2022-12-31T00:09:01.807Z,101680.38
2022-12-31T00:11:30.966Z,101684.16
2022-12-31T00:13:59.910Z,101692.03
2022-12-31T00:16:36.772Z,101681.63
2022-12-31T00:19:07.169Z,101680.06
2022-12-31T00:21:35.918Z,101683.09
2022-12-31T00:24:06.586Z,101681.47
2022-12-31T00:26:36.198Z,101669.84
2022-12-31T00:29:05.700Z,101677.47
2022-12-31T00:31:37.057Z,101673.50
2022-12-31T00:34:06.535Z,101669.75
2022-12-31T00:36:37.485Z,101674.69
2022-12-31T00:39:08.560Z,101672.25
2022-12-31T00:41:36.930Z,101671.13
2022-12-31T00:44:06.695Z,101664.13
2022-12-31T00:49:03.848Z,101679.41
2022-12-31T00:51:31.848Z,101682.50
2022-12-31T00:54:01.830Z,101684.97
2022-12-31T00:56:31.497Z,101688.88
2022-12-31T00:59:00.797Z,101684.97
2022-12-31T01:01:38.649Z,101675.53
2022-12-31T01:04:11.235Z,101676.06
2022-12-31T01:06:40.607Z,101686.28
2022-12-31T01:09:10.229Z,101690.47
2022-12-31T01:11:38.388Z,101692.25
2022-12-31T01:14:11.606Z,101694.38
2022-12-31T01:16:43.477Z,101705.31
2022-12-31T01:19:15.825Z,101708.28
2022-12-31T01:21:46.215Z,101724.25
2022-12-31T01:24:15.388Z,101722.22
2022-12-31T01:26:44.146Z,101723.84
2022-12-31T01:29:13.992Z,101722.19
2022-12-31T01:31:43.707Z,101717.94
2022-12-31T01:34:12.232Z,101721.59
2022-12-31T01:36:40.345Z,101718.13
2022-12-31T01:39:12.612Z,101726.94
2022-12-31T01:41:44.638Z,101724.16
2022-12-31T01:44:14.035Z,101731.13
2022-12-31T01:47:03.339Z,101738.06
2022-12-31T01:49:41.418Z,101740.50
2022-12-31T01:52:12.718Z,101745.56
2022-12-31T01:54:57.723Z,101746.88
2022-12-31T01:57:27.510Z,101749.84
2022-12-31T01:59:56.808Z,101755.94
2022-12-31T02:02:25.469Z,101766.34
2022-12-31T02:04:57.408Z,101762.84
2022-12-31T02:07:26.266Z,101760.22
2022-12-31T02:09:54.919Z,101764.69
2022-12-31T02:12:23.775Z,101772.94
2022-12-31T02:14:54.755Z,101778.56
2022-12-31T02:17:30.907Z,101779.91
2022-12-31T02:20:31.597Z,101783.63
2022-12-31T02:23:18.701Z,101784.69
2022-12-31T02:26:05.777Z,101773.22
2022-12-31T02:29:01.847Z,101779.53
2022-12-31T02:31:37.455Z,101789.94
2022-12-31T02:34:12.232Z,101792.06
2022-12-31T02:36:47.465Z,101788.66
2022-12-31T02:39:15.989Z,101786.25
2022-12-31T02:41:51.993Z,101784.66
2022-12-31T02:44:34.907Z,101776.66
2022-12-31T02:47:09.037Z,101775.59
2022-12-31T02:49:52.080Z,101787.06
2022-12-31T02:52:44.816Z,101794.22
2022-12-31T02:55:24.847Z,101791.84
2022-12-31T02:58:13.827Z,101803.00
2022-12-31T03:01:15.083Z,101805.41
2022-12-31T03:03:43.544Z,101807.53
2022-12-31T03:06:13.128Z,101805.16
2022-12-31T03:09:01.389Z,101807.28
2022-12-31T03:11:48.156Z,101809.69
2022-12-31T03:14:17.770Z,101812.34
2022-12-31T03:16:45.760Z,101803.56
2022-12-31T03:19:32.858Z,101798.22
2022-12-31T03:22:19.266Z,101802.16
2022-12-31T03:25:06.099Z,101808.00
2022-12-31T03:27:34.675Z,101805.59
2022-12-31T03:30:04.617Z,101799.47
2022-12-31T03:32:32.616Z,101800.50
2022-12-31T03:35:00.952Z,101799.44
2022-12-31T03:37:28.936Z,101799.19
2022-12-31T03:39:57.324Z,101792.13
2022-12-31T03:42:25.417Z,101793.66
2022-12-31T03:44:53.849Z,101793.63
2022-12-31T03:47:21.858Z,101797.56
2022-12-31T03:49:50.328Z,101792.47
2022-12-31T03:52:18.355Z,101784.75
2022-12-31T03:54:46.725Z,101779.19
2022-12-31T03:57:14.757Z,101773.81
2022-12-31T03:59:43.086Z,101789.84
2022-12-31T04:02:11.471Z,101784.97
2022-12-31T04:04:41.178Z,101796.44
2022-12-31T04:07:09.279Z,101799.16
2022-12-31T04:09:37.677Z,101814.88
2022-12-31T04:12:06.686Z,101809.84
2022-12-31T04:14:35.292Z,101817.03
2022-12-31T04:17:03.317Z,101806.34
2022-12-31T04:19:31.766Z,101810.66
2022-12-31T04:21:59.710Z,101812.00
2022-12-31T04:24:28.109Z,101809.31
2022-12-31T04:26:56.657Z,101812.44
2022-12-31T04:29:27.027Z,101818.03
2022-12-31T04:31:55.088Z,101817.47
2022-12-31T04:34:29.984Z,101820.19
2022-12-31T04:41:54.490Z,101824.78
2022-12-31T04:44:22.909Z,101838.34
2022-12-31T04:46:51.030Z,101839.97
2022-12-31T04:49:19.618Z,101848.47
2022-12-31T04:51:48.629Z,101850.41
2022-12-31T04:54:17.002Z,101859.94
2022-12-31T04:56:44.992Z,101867.69
2022-12-31T04:59:13.432Z,101875.94
2022-12-31T05:01:41.523Z,101881.00
2022-12-31T05:04:09.984Z,101874.69
2022-12-31T05:06:38.083Z,101882.63
2022-12-31T05:09:06.449Z,101889.53
2022-12-31T05:11:36.041Z,101898.84
2022-12-31T05:14:04.707Z,101893.53
2022-12-31T05:16:32.747Z,101895.94
2022-12-31T05:19:01.042Z,101896.75
2022-12-31T05:21:29.074Z,101906.59
2022-12-31T05:23:57.425Z,101899.41
2022-12-31T05:26:25.583Z,101899.09
2022-12-31T05:28:55.716Z,101895.13
2022-12-31T05:31:23.673Z,101910.28
2022-12-31T05:33:53.043Z,101911.00
2022-12-31T05:36:20.965Z,101915.59
2022-12-31T05:38:49.307Z,101919.00
2022-12-31T05:41:17.457Z,101913.44
2022-12-31T05:43:45.876Z,101920.94
2022-12-31T05:46:13.845Z,101927.03
2022-12-31T05:48:42.205Z,101940.91
2022-12-31T05:51:10.265Z,101937.94
2022-12-31T05:53:38.584Z,101932.66
2022-12-31T05:56:06.707Z,101941.75
2022-12-31T05:58:35.074Z,101950.03
2022-12-31T06:01:03.101Z,101943.09
2022-12-31T06:03:32.779Z,101936.13
2022-12-31T06:06:01.645Z,101943.03
2022-12-31T06:08:30.113Z,101941.47
2022-12-31T06:10:58.092Z,101942.53
2022-12-31T06:13:27.937Z,101943.88
2022-12-31T06:15:56.150Z,101948.66
2022-12-31T06:18:24.581Z,101957.47
2022-12-31T06:20:52.617Z,101965.19
2022-12-31T06:23:20.839Z,101962.53
2022-12-31T06:25:48.823Z,101961.75
2022-12-31T06:28:20.586Z,101972.38
2022-12-31T06:30:49.167Z,101969.72
2022-12-31T06:33:17.555Z,101974.00
2022-12-31T06:35:45.513Z,101976.63
2022-12-31T06:38:13.859Z,101970.50
2022-12-31T06:40:41.810Z,101972.91
2022-12-31T06:43:10.093Z,101977.19
2022-12-31T06:45:39.883Z,101991.31
2022-12-31T06:48:08.512Z,102000.34
2022-12-31T06:50:36.553Z,101994.50
2022-12-31T06:53:05.023Z,101989.19
2022-12-31T06:55:33.487Z,101993.97
2022-12-31T06:58:04.433Z,102000.91
2022-12-31T07:00:32.690Z,102020.63
2022-12-31T07:03:43.548Z,102012.34
2022-12-31T07:06:16.841Z,102016.63
2022-12-31T07:08:51.920Z,102019.56
2022-12-31T07:11:29.239Z,102022.47
2022-12-31T07:14:17.637Z,102025.16
2022-12-31T07:17:00.592Z,102028.06
2022-12-31T07:19:41.939Z,102031.03
2022-12-31T07:22:15.722Z,102036.88
2022-12-31T07:24:45.119Z,102049.38
2022-12-31T07:27:40.516Z,102053.38
2022-12-31T07:30:13.601Z,102059.50
2022-12-31T07:33:02.757Z,102056.03
2022-12-31T07:35:37.038Z,102055.53
2022-12-31T07:38:12.771Z,102061.66
2022-12-31T07:41:18.428Z,102065.38
2022-12-31T07:44:28.508Z,102072.84
2022-12-31T07:47:00.424Z,102068.03
2022-12-31T07:49:30.814Z,102069.66
2022-12-31T07:51:59.700Z,102065.91
2022-12-31T07:54:27.632Z,102069.63
2022-12-31T07:56:55.939Z,102073.63
2022-12-31T07:59:55.029Z,102079.78
2022-12-31T08:02:47.666Z,102084.81
2022-12-31T08:05:24.758Z,102092.25
2022-12-31T08:08:04.708Z,102096.25
2022-12-31T08:10:49.159Z,102095.78
2022-12-31T08:13:18.187Z,102096.75
2022-12-31T08:15:46.490Z,102106.38
2022-12-31T08:18:14.878Z,102108.25
2022-12-31T08:21:29.613Z,102105.88
2022-12-31T08:24:11.151Z,102112.53
2022-12-31T08:27:08.694Z,102121.34
2022-12-31T08:29:47.482Z,102120.28
2022-12-31T08:32:26.329Z,102121.31
2022-12-31T08:35:21.423Z,102112.22
2022-12-31T08:38:04.160Z,102127.22
2022-12-31T08:40:52.255Z,102118.69
2022-12-31T08:43:59.118Z,102128.00
2022-12-31T08:46:52.140Z,102136.28
2022-12-31T08:49:20.419Z,102133.38
2022-12-31T08:51:48.939Z,102131.50
2022-12-31T08:54:17.080Z,102134.16
2022-12-31T08:57:15.236Z,102129.63
2022-12-31T08:59:49.909Z,102140.03
2022-12-31T09:02:48.250Z,102148.03
2022-12-31T09:05:39.448Z,102150.97
2022-12-31T09:08:33.871Z,102146.97
2022-12-31T09:11:29.372Z,102149.38
2022-12-31T09:14:18.425Z,102146.97
2022-12-31T09:16:58.605Z,102154.41
2022-12-31T09:19:28.262Z,102149.34
2022-12-31T09:21:56.581Z,102145.06
2022-12-31T09:24:26.253Z,102155.47
2022-12-31T09:27:13.615Z,102154.66
2022-12-31T09:30:05.071Z,102157.06
2022-12-31T09:32:38.921Z,102165.31
2022-12-31T09:35:08.175Z,102158.13
2022-12-31T09:37:51.531Z,102162.13
2022-12-31T09:40:29.934Z,102145.56
2022-12-31T09:43:35.261Z,102154.91
2022-12-31T09:46:12.678Z,102162.13
2022-12-31T09:48:58.752Z,102164.78
2022-12-31T09:51:47.028Z,102170.66
2022-12-31T09:54:48.311Z,102172.78
2022-12-31T09:57:40.503Z,102176.75
2022-12-31T10:00:18.832Z,102181.50
2022-12-31T10:03:08.397Z,102182.09
2022-12-31T10:06:14.237Z,102175.44
2022-12-31T10:09:31.263Z,102180.75
2022-12-31T10:12:02.125Z,102178.31
2022-12-31T10:14:45.359Z,102177.72
2022-12-31T10:17:31.609Z,102170.84
2022-12-31T10:20:27.252Z,102172.66
2022-12-31T10:23:22.732Z,102169.00
2022-12-31T10:26:12.101Z,102167.31
2022-12-31T10:28:53.581Z,102166.84
2022-12-31T10:31:52.279Z,102161.41
2022-12-31T10:34:31.812Z,102163.38
2022-12-31T10:37:15.207Z,102157.41
2022-12-31T10:40:15.322Z,102157.34
2022-12-31T10:43:05.112Z,102146.00
2022-12-31T10:45:51.389Z,102135.75
2022-12-31T10:48:38.464Z,102139.66
2022-12-31T10:51:09.452Z,102130.53
2022-12-31T10:53:52.691Z,102134.00
2022-12-31T10:56:23.751Z,102130.53
2022-12-31T10:59:04.141Z,102129.66
2022-12-31T11:01:38.203Z,102129.69
2022-12-31T11:04:31.239Z,102137.13
2022-12-31T11:07:26.621Z,102142.97
2022-12-31T11:10:33.232Z,102133.16
2022-12-31T11:13:34.781Z,102139.19
2022-12-31T11:16:18.518Z,102143.47
2022-12-31T11:19:31.433Z,102145.50
2022-12-31T11:22:08.780Z,102151.16
2022-12-31T11:25:02.239Z,102143.56
2022-12-31T11:27:51.489Z,102138.75
2022-12-31T11:31:16.920Z,102139.84
2022-12-31T11:34:10.910Z,102130.66
2022-12-31T11:36:48.494Z,102141.44
2022-12-31T11:39:50.673Z,102135.53
2022-12-31T11:42:36.867Z,102133.97
2022-12-31T11:45:15.846Z,102126.66
2022-12-31T11:51:28.880Z,102138.00
2022-12-31T11:54:25.782Z,102133.34
2022-12-31T11:57:35.752Z,102130.53
2022-12-31T12:00:09.713Z,102115.69
2022-12-31T12:02:49.357Z,102120.72
2022-12-31T12:05:20.602Z,102112.56
2022-12-31T12:07:50.379Z,102097.91
2022-12-31T12:10:36.551Z,102094.25
2022-12-31T12:13:14.742Z,102084.97
2022-12-31T12:15:47.096Z,102086.13
2022-12-31T12:18:46.513Z,102101.84
2022-12-31T12:21:21.850Z,102097.50
2022-12-31T12:23:58.951Z,102085.38
2022-12-31T12:26:33.181Z,102089.09
2022-12-31T12:29:11.401Z,102089.25
2022-12-31T12:31:39.790Z,102081.44
2022-12-31T12:34:26.702Z,102073.47
2022-12-31T12:36:55.219Z,102087.03
2022-12-31T12:39:30.502Z,102088.63
2022-12-31T12:42:06.220Z,102078.72
2022-12-31T12:44:36.014Z,102082.25
2022-12-31T12:47:07.319Z,102086.56
2022-12-31T12:49:42.799Z,102082.03
2022-12-31T12:52:32.459Z,102083.09
2022-12-31T12:55:32.009Z,102090.50
2022-12-31T12:58:19.154Z,102084.75
2022-12-31T13:01:04.311Z,102085.19
2022-12-31T13:04:23.792Z,102085.13
2022-12-31T13:07:08.239Z,102085.28
2022-12-31T13:09:58.465Z,102094.00
2022-12-31T13:13:25.170Z,102086.53
2022-12-31T13:16:00.653Z,102085.75
2022-12-31T13:18:39.668Z,102080.53
2022-12-31T13:21:36.177Z,102084.50
2022-12-31T13:24:23.851Z,102084.72
2022-12-31T13:27:12.226Z,102085.69
2022-12-31T13:29:44.921Z,102080.22
2022-12-31T13:32:19.808Z,102081.00
2022-12-31T13:34:55.471Z,102087.47
2022-12-31T13:37:42.795Z,102084.44
2022-12-31T13:40:24.130Z,102077.75
2022-12-31T13:43:08.356Z,102082.53
2022-12-31T13:45:43.593Z,102079.00
2022-12-31T13:48:20.326Z,102083.28
2022-12-31T13:50:57.960Z,102089.91
2022-12-31T13:53:35.078Z,102094.66
2022-12-31T13:56:15.202Z,102095.19
2022-12-31T13:58:57.430Z,102095.34
2022-12-31T14:01:34.409Z,102092.31
2022-12-31T14:04:33.857Z,102090.63
2022-12-31T14:07:06.750Z,102091.94
2022-12-31T14:09:36.227Z,102095.97
2022-12-31T14:12:07.413Z,102097.50
2022-12-31T14:14:48.878Z,102099.16
2022-12-31T14:17:43.715Z,102111.97
2022-12-31T14:20:42.398Z,102118.25
2022-12-31T14:23:48.077Z,102120.25
2022-12-31T14:26:30.499Z,102118.75
2022-12-31T14:29:02.872Z,102123.16
2022-12-31T14:31:49.293Z,102126.47
2022-12-31T14:34:40.686Z,102133.41
2022-12-31T14:37:24.459Z,102142.44
2022-12-31T14:40:00.785Z,102149.06
2022-12-31T14:42:37.179Z,102150.09
2022-12-31T14:45:23.948Z,102147.97
2022-12-31T14:48:01.585Z,102160.28
2022-12-31T14:50:34.140Z,102159.72
2022-12-31T14:53:06.485Z,102160.00
2022-12-31T14:55:40.972Z,102169.19
2022-12-31T14:58:28.173Z,102151.66
2022-12-31T15:01:01.103Z,102156.63
2022-12-31T15:03:31.887Z,102154.00
2022-12-31T15:06:24.902Z,102155.31
2022-12-31T15:09:08.277Z,102147.13
2022-12-31T15:11:39.543Z,102163.72
2022-12-31T15:14:22.275Z,102153.59
2022-12-31T15:17:02.852Z,102157.75
2022-12-31T15:20:05.035Z,102153.41
2022-12-31T15:22:40.135Z,102154.13
2022-12-31T15:25:30.184Z,102168.66
2022-12-31T15:28:03.611Z,102161.03
2022-12-31T15:30:37.066Z,102167.06
2022-12-31T15:33:08.655Z,102171.88
2022-12-31T15:35:54.789Z,102167.59
2022-12-31T15:38:34.344Z,102177.00
2022-12-31T15:41:19.090Z,102178.47
2022-12-31T15:44:19.943Z,102177.28
2022-12-31T15:47:15.205Z,102191.28
2022-12-31T15:49:47.588Z,102187.78
2022-12-31T15:52:52.315Z,102190.28
2022-12-31T15:55:26.653Z,102190.59
2022-12-31T15:58:02.086Z,102198.72
2022-12-31T16:00:46.738Z,102204.69
2022-12-31T16:03:24.630Z,102199.38
2022-12-31T16:05:59.104Z,102212.31
2022-12-31T16:08:31.839Z,102208.38
2022-12-31T16:11:00.932Z,102205.97
2022-12-31T16:13:30.343Z,102215.34
2022-12-31T16:16:05.530Z,102209.94
2022-12-31T16:18:40.814Z,102212.56
2022-12-31T16:21:27.864Z,102221.41
2022-12-31T16:23:58.139Z,102213.63
2022-12-31T16:26:33.434Z,102214.59
2022-12-31T16:29:04.544Z,102218.56
2022-12-31T16:31:33.270Z,102220.47
2022-12-31T16:34:14.197Z,102218.53
2022-12-31T16:36:42.780Z,102220.91
2022-12-31T16:39:25.187Z,102217.91
2022-12-31T16:42:20.311Z,102231.00
2022-12-31T16:44:50.588Z,102225.00
2022-12-31T16:47:40.515Z,102231.72
2022-12-31T16:50:21.233Z,102230.00
2022-12-31T16:53:04.445Z,102238.41
2022-12-31T16:55:34.675Z,102233.06
2022-12-31T16:58:17.734Z,102237.09
2022-12-31T17:00:48.100Z,102242.41
2022-12-31T17:03:23.915Z,102245.84
2022-12-31T17:06:21.499Z,102247.13
2022-12-31T17:08:55.641Z,102250.63
2022-12-31T17:11:41.810Z,102250.09
2022-12-31T17:14:09.922Z,102252.81
2022-12-31T17:17:01.631Z,102263.63
2022-12-31T17:19:36.828Z,102268.44
2022-12-31T17:22:05.791Z,102260.44
2022-12-31T17:24:36.213Z,102255.34
2022-12-31T17:27:06.590Z,102260.63
2022-12-31T17:29:35.444Z,102263.91
2022-12-31T17:32:06.882Z,102260.44
2022-12-31T17:34:40.280Z,102263.09
2022-12-31T17:37:13.024Z,102263.09
2022-12-31T17:39:49.580Z,102262.53
2022-12-31T17:42:27.189Z,102261.47
2022-12-31T17:45:08.560Z,102267.72
2022-12-31T17:47:39.781Z,102271.44
2022-12-31T17:50:28.411Z,102274.34
2022-12-31T17:52:59.661Z,102281.28
2022-12-31T17:55:29.211Z,102277.53
2022-12-31T17:57:58.412Z,102281.00
2022-12-31T18:00:27.952Z,102273.25
2022-12-31T18:02:56.121Z,102269.19
2022-12-31T18:05:25.591Z,102269.50
2022-12-31T18:07:54.414Z,102269.78
2022-12-31T18:10:25.502Z,102270.84
2022-12-31T18:12:53.854Z,102273.78
2022-12-31T18:15:24.240Z,102284.66
2022-12-31T18:17:52.317Z,102280.75
2022-12-31T18:20:22.016Z,102278.06
2022-12-31T18:22:50.809Z,102275.63
2022-12-31T18:25:24.135Z,102268.72
2022-12-31T18:27:52.966Z,102274.00
2022-12-31T18:30:23.590Z,102277.69
2022-12-31T18:32:51.786Z,102274.75
2022-12-31T18:35:57.762Z,102275.03
2022-12-31T18:38:14.461Z,102275.03
2022-12-31T18:40:46.990Z,102271.66
2022-12-31T18:43:17.687Z,102270.56
2022-12-31T18:45:47.721Z,102274.28
2022-12-31T18:48:16.392Z,102285.03
2022-12-31T18:50:46.999Z,102280.38
2022-12-31T18:53:20.823Z,102282.00
2022-12-31T18:55:51.991Z,102280.44
2022-12-31T18:58:20.468Z,102281.75
2022-12-31T19:00:51.084Z,102283.63
2022-12-31T19:03:23.391Z,102294.88
2022-12-31T19:05:52.669Z,102281.16
2022-12-31T19:08:22.500Z,102294.81
2022-12-31T19:10:52.338Z,102291.06
2022-12-31T19:13:21.347Z,102293.19
2022-12-31T19:15:52.943Z,102298.63
2022-12-31T19:18:20.868Z,102303.78
2022-12-31T19:20:49.317Z,102300.81
2022-12-31T19:23:20.739Z,102302.91
2022-12-31T19:25:49.757Z,102298.09
2022-12-31T19:28:21.529Z,102304.44
2022-12-31T19:30:50.065Z,102304.53
2022-12-31T19:33:18.995Z,102302.13
2022-12-31T19:35:47.482Z,102309.91
2022-12-31T19:38:24.685Z,102312.16
2022-12-31T19:40:54.275Z,102313.22
2022-12-31T19:43:23.753Z,102322.25
2022-12-31T19:45:53.271Z,102325.56
2022-12-31T19:48:28.753Z,102326.66
2022-12-31T19:51:00.519Z,102313.81
2022-12-31T19:53:29.000Z,102315.13
2022-12-31T19:55:58.357Z,102328.75
2022-12-31T19:58:27.442Z,102333.56
2022-12-31T20:01:02.319Z,102338.38
2022-12-31T20:03:33.006Z,102335.75
2022-12-31T20:06:07.702Z,102349.38
2022-12-31T20:08:37.368Z,102346.66
2022-12-31T20:11:14.794Z,102352.31
2022-12-31T20:13:43.135Z,102349.03
2022-12-31T20:16:15.313Z,102340.78
2022-12-31T20:18:44.824Z,102356.84
2022-12-31T20:21:19.187Z,102346.97
2022-12-31T20:23:48.439Z,102346.38
2022-12-31T20:26:17.730Z,102344.25
2022-12-31T20:28:46.005Z,102344.44
2022-12-31T20:31:17.330Z,102342.88
2022-12-31T20:33:45.817Z,102341.56
2022-12-31T20:36:16.354Z,102344.75
2022-12-31T20:38:45.573Z,102342.09
2022-12-31T20:41:20.059Z,102342.69
2022-12-31T20:43:49.493Z,102349.84
2022-12-31T20:46:25.780Z,102352.03
2022-12-31T20:48:57.359Z,102343.47
2022-12-31T20:51:28.087Z,102345.09
2022-12-31T20:54:03.267Z,102353.63
2022-12-31T20:56:32.774Z,102349.59
2022-12-31T20:59:03.513Z,102344.22
2022-12-31T21:01:55.158Z,102352.50
2022-12-31T21:04:20.611Z,102344.78
2022-12-31T21:06:48.735Z,102351.75
2022-12-31T21:09:17.064Z,102346.97
2022-12-31T21:12:03.329Z,102344.50
2022-12-31T21:14:31.715Z,102352.56
2022-12-31T21:16:59.648Z,102344.88
2022-12-31T21:19:29.279Z,102354.44
2022-12-31T21:21:57.265Z,102352.31
2022-12-31T21:24:25.513Z,102345.94
2022-12-31T21:26:57.044Z,102343.75
2022-12-31T21:29:31.240Z,102342.09
2022-12-31T21:32:02.158Z,102345.38
2022-12-31T21:34:30.560Z,102342.44
2022-12-31T21:36:58.503Z,102342.34
2022-12-31T21:39:26.783Z,102332.50
2022-12-31T21:41:54.912Z,102332.22
2022-12-31T21:44:25.339Z,102333.03
2022-12-31T21:47:39.489Z,102330.34
2022-12-31T21:50:09.133Z,102335.19
2022-12-31T21:52:37.186Z,102342.69
2022-12-31T21:55:24.727Z,102336.50
2022-12-31T21:58:24.660Z,102333.81
2022-12-31T22:01:00.920Z,102346.38
2022-12-31T22:03:29.485Z,102352.28
2022-12-31T22:05:59.964Z,102342.09
2022-12-31T22:08:30.528Z,102343.19
2022-12-31T22:10:58.853Z,102342.41
2022-12-31T22:13:26.907Z,102347.75
2022-12-31T22:16:03.972Z,102346.94
2022-12-31T22:18:40.882Z,102350.16
2022-12-31T22:21:18.135Z,102349.28
2022-12-31T22:23:50.140Z,102350.63
2022-12-31T22:26:21.434Z,102347.22
2022-12-31T22:28:50.146Z,102353.03
2022-12-31T22:31:24.743Z,102339.72
2022-12-31T22:33:53.557Z,102340.22
2022-12-31T22:36:23.306Z,102333.00
2022-12-31T22:38:55.397Z,102335.19
2022-12-31T22:41:26.534Z,102335.19
2022-12-31T22:44:03.134Z,102338.09
2022-12-31T22:46:33.923Z,102330.09
2022-12-31T22:49:04.244Z,102329.88
2022-12-31T22:51:57.504Z,102337.66
2022-12-31T22:54:21.237Z,102323.50
2022-12-31T22:56:50.878Z,102319.22
2022-12-31T22:59:19.747Z,102320.81
2022-12-31T23:01:48.233Z,102324.09
2022-12-31T23:04:16.778Z,102319.78
2022-12-31T23:06:45.319Z,102319.78
2022-12-31T23:09:34.924Z,102321.09
2022-12-31T23:12:06.241Z,102316.56
2022-12-31T23:14:52.688Z,102317.97
2022-12-31T23:17:46.002Z,102324.34
2022-12-31T23:20:35.718Z,102316.69
2022-12-31T23:23:11.956Z,102317.22
2022-12-31T23:25:49.705Z,102319.84
2022-12-31T23:28:25.067Z,102319.09
2022-12-31T23:30:53.341Z,102307.84
2022-12-31T23:33:24.987Z,102301.13
2022-12-31T23:36:07.043Z,102312.63
2022-12-31T23:38:36.405Z,102307.84
2022-12-31T23:41:15.251Z,102303.28
2022-12-31T23:43:44.205Z,102300.91
2022-12-31T23:46:13.737Z,102296.59
2022-12-31T23:48:42.855Z,102299.56
2022-12-31T23:51:10.766Z,102296.91
2022-12-31T23:53:39.152Z,102290.69
2022-12-31T23:56:14.891Z,102299.25
2022-12-31T23:58:44.930Z,102295.75
